sensor_id;sensor_type;location;lat;lon;timestamp;temperature;humidity
19496;DHT22;9888;48.606;9.630;2022-09-09T00:01:28;8.80;99.90
19496;DHT22;9888;48.606;9.630;2022-09-09T00:07:04;8.90;99.90
19496;DHT22;9888;48.606;9.630;2022-09-09T00:16:04;9.00;99.90
19496;DHT22;9888;48.606;9.630;2022-09-09T00:25:40;9.00;99.90
19496;DHT22;9888;48.606;9.630;2022-09-09T00:28:25;8.90;99.90
19496;DHT22;9888;48.606;9.630;2022-09-09T00:30:54;8.90;99.90
19496;DHT22;9888;48.606;9.630;2022-09-09T00:36:40;9.00;99.90
19496;DHT22;9888;48.606;9.630;2022-09-09T00:39:34;9.00;99.90
19496;DHT22;9888;48.606;9.630;2022-09-09T00:45:39;9.10;99.90
19496;DHT22;9888;48.606;9.630;2022-09-09T00:48:14;9.10;99.90
19496;DHT22;9888;48.606;9.630;2022-09-09T00:51:02;9.20;99.90
19496;DHT22;9888;48.606;9.630;2022-09-09T00:56:37;9.20;99.90
19496;DHT22;9888;48.606;9.630;2022-09-09T01:15:30;9.20;99.90
19496;DHT22;9888;48.606;9.630;2022-09-09T01:24:40;9.20;99.90
19496;DHT22;9888;48.606;9.630;2022-09-09T01:27:18;9.10;99.90
19496;DHT22;9888;48.606;9.630;2022-09-09T01:29:49;9.20;99.90
19496;DHT22;9888;48.606;9.630;2022-09-09T01:32:40;9.20;99.90
19496;DHT22;9888;48.606;9.630;2022-09-09T01:38:13;9.20;99.90
19496;DHT22;9888;48.606;9.630;2022-09-09T01:40:58;9.30;99.90
19496;DHT22;9888;48.606;9.630;2022-09-09T01:44:08;9.20;99.90
19496;DHT22;9888;48.606;9.630;2022-09-09T01:46:44;9.20;99.90
19496;DHT22;9888;48.606;9.630;2022-09-09T01:49:35;9.20;99.90
19496;DHT22;9888;48.606;9.630;2022-09-09T01:52:03;9.30;99.90
19496;DHT22;9888;48.606;9.630;2022-09-09T01:54:38;9.30;99.90
19496;DHT22;9888;48.606;9.630;2022-09-09T02:02:57;9.10;99.90
19496;DHT22;9888;48.606;9.630;2022-09-09T02:05:55;9.10;99.90
19496;DHT22;9888;48.606;9.630;2022-09-09T02:08:55;9.10;99.90
19496;DHT22;9888;48.606;9.630;2022-09-09T02:11:28;9.10;99.90
19496;DHT22;9888;48.606;9.630;2022-09-09T02:24:08;9.00;99.90
19496;DHT22;9888;48.606;9.630;2022-09-09T02:30:21;9.10;99.90
19496;DHT22;9888;48.606;9.630;2022-09-09T02:39:43;9.20;99.90
19496;DHT22;9888;48.606;9.630;2022-09-09T02:42:26;9.20;99.90
19496;DHT22;9888;48.606;9.630;2022-09-09T02:45:03;9.30;99.90
19496;DHT22;9888;48.606;9.630;2022-09-09T02:48:09;9.30;99.90
19496;DHT22;9888;48.606;9.630;2022-09-09T02:51:31;9.50;99.90
19496;DHT22;9888;48.606;9.630;2022-09-09T02:56:55;9.60;99.90
19496;DHT22;9888;48.606;9.630;2022-09-09T02:59:24;9.60;99.90
19496;DHT22;9888;48.606;9.630;2022-09-09T03:02:08;9.70;99.90
19496;DHT22;9888;48.606;9.630;2022-09-09T03:04:39;9.70;99.90
19496;DHT22;9888;48.606;9.630;2022-09-09T03:07:30;9.80;99.90
19496;DHT22;9888;48.606;9.630;2022-09-09T03:13:08;9.90;99.90
19496;DHT22;9888;48.606;9.630;2022-09-09T03:15:36;10.00;99.90
19496;DHT22;9888;48.606;9.630;2022-09-09T03:28:27;10.20;99.90
19496;DHT22;9888;48.606;9.630;2022-09-09T03:31:03;10.20;99.90
19496;DHT22;9888;48.606;9.630;2022-09-09T03:33:33;10.30;99.90
19496;DHT22;9888;48.606;9.630;2022-09-09T03:36:03;10.30;99.90
19496;DHT22;9888;48.606;9.630;2022-09-09T03:38:31;10.30;99.90
19496;DHT22;9888;48.606;9.630;2022-09-09T03:41:00;10.40;99.90
19496;DHT22;9888;48.606;9.630;2022-09-09T03:43:28;10.40;99.90
19496;DHT22;9888;48.606;9.630;2022-09-09T03:46:00;10.50;99.90
19496;DHT22;9888;48.606;9.630;2022-09-09T03:48:28;10.50;99.90
19496;DHT22;9888;48.606;9.630;2022-09-09T03:51:03;10.70;99.90
19496;DHT22;9888;48.606;9.630;2022-09-09T03:53:32;10.70;99.90
19496;DHT22;9888;48.606;9.630;2022-09-09T03:56:16;10.70;99.90
19496;DHT22;9888;48.606;9.630;2022-09-09T04:02:07;10.80;99.90
19496;DHT22;9888;48.606;9.630;2022-09-09T04:04:38;10.90;99.90
19496;DHT22;9888;48.606;9.630;2022-09-09T04:07:06;11.00;99.90
19496;DHT22;9888;48.606;9.630;2022-09-09T04:09:34;11.00;99.90
19496;DHT22;9888;48.606;9.630;2022-09-09T04:12:02;11.20;99.90
19496;DHT22;9888;48.606;9.630;2022-09-09T04:14:30;11.20;99.90
19496;DHT22;9888;48.606;9.630;2022-09-09T04:16:58;11.30;99.90
19496;DHT22;9888;48.606;9.630;2022-09-09T04:19:26;11.20;99.90
19496;DHT22;9888;48.606;9.630;2022-09-09T04:21:53;11.30;99.90
19496;DHT22;9888;48.606;9.630;2022-09-09T04:24:32;11.30;99.90
19496;DHT22;9888;48.606;9.630;2022-09-09T04:27:03;11.30;99.90
19496;DHT22;9888;48.606;9.630;2022-09-09T04:29:31;11.30;99.90
19496;DHT22;9888;48.606;9.630;2022-09-09T04:31:59;11.30;99.90
19496;DHT22;9888;48.606;9.630;2022-09-09T04:34:29;11.40;99.90
19496;DHT22;9888;48.606;9.630;2022-09-09T04:36:57;11.40;99.90
19496;DHT22;9888;48.606;9.630;2022-09-09T04:39:24;11.40;99.90
19496;DHT22;9888;48.606;9.630;2022-09-09T04:44:57;11.40;99.90
19496;DHT22;9888;48.606;9.630;2022-09-09T04:50:42;11.40;99.90
19496;DHT22;9888;48.606;9.630;2022-09-09T04:53:10;11.40;99.90
19496;DHT22;9888;48.606;9.630;2022-09-09T04:55:39;11.40;99.90
19496;DHT22;9888;48.606;9.630;2022-09-09T04:58:08;11.50;99.90
19496;DHT22;9888;48.606;9.630;2022-09-09T05:00:42;11.50;99.90
19496;DHT22;9888;48.606;9.630;2022-09-09T05:03:11;11.50;99.90
19496;DHT22;9888;48.606;9.630;2022-09-09T05:05:41;11.40;99.90
19496;DHT22;9888;48.606;9.630;2022-09-09T05:08:10;11.50;99.90
19496;DHT22;9888;48.606;9.630;2022-09-09T05:10:40;11.60;99.90
19496;DHT22;9888;48.606;9.630;2022-09-09T05:13:08;11.50;99.90
19496;DHT22;9888;48.606;9.630;2022-09-09T05:15:37;11.50;99.90
19496;DHT22;9888;48.606;9.630;2022-09-09T05:18:08;11.40;99.90
19496;DHT22;9888;48.606;9.630;2022-09-09T05:20:37;11.40;99.90
19496;DHT22;9888;48.606;9.630;2022-09-09T05:23:05;11.50;99.90
19496;DHT22;9888;48.606;9.630;2022-09-09T05:25:32;11.60;99.90
19496;DHT22;9888;48.606;9.630;2022-09-09T05:28:01;11.70;99.90
19496;DHT22;9888;48.606;9.630;2022-09-09T05:30:29;11.70;99.90
19496;DHT22;9888;48.606;9.630;2022-09-09T05:33:01;11.70;99.90
19496;DHT22;9888;48.606;9.630;2022-09-09T05:35:30;11.70;99.90
19496;DHT22;9888;48.606;9.630;2022-09-09T05:38:02;11.70;99.90
19496;DHT22;9888;48.606;9.630;2022-09-09T05:40:31;11.70;99.90
19496;DHT22;9888;48.606;9.630;2022-09-09T05:43:06;11.80;99.90
19496;DHT22;9888;48.606;9.630;2022-09-09T05:45:39;11.80;99.90
19496;DHT22;9888;48.606;9.630;2022-09-09T05:48:10;11.90;99.90
19496;DHT22;9888;48.606;9.630;2022-09-09T05:50:38;12.00;99.90
19496;DHT22;9888;48.606;9.630;2022-09-09T05:53:06;12.20;99.90
19496;DHT22;9888;48.606;9.630;2022-09-09T05:55:38;12.40;99.90
19496;DHT22;9888;48.606;9.630;2022-09-09T05:58:06;12.60;99.90
19496;DHT22;9888;48.606;9.630;2022-09-09T06:00:35;12.80;99.90
19496;DHT22;9888;48.606;9.630;2022-09-09T06:03:03;13.00;99.90
19496;DHT22;9888;48.606;9.630;2022-09-09T06:05:30;13.20;99.90
19496;DHT22;9888;48.606;9.630;2022-09-09T06:08:00;13.30;99.90
19496;DHT22;9888;48.606;9.630;2022-09-09T06:10:29;13.50;99.90
19496;DHT22;9888;48.606;9.630;2022-09-09T06:12:59;13.60;99.90
19496;DHT22;9888;48.606;9.630;2022-09-09T06:22:15;14.10;99.90
19496;DHT22;9888;48.606;9.630;2022-09-09T06:24:49;14.20;99.90
19496;DHT22;9888;48.606;9.630;2022-09-09T06:27:17;14.30;99.90
19496;DHT22;9888;48.606;9.630;2022-09-09T06:29:57;14.50;99.90
19496;DHT22;9888;48.606;9.630;2022-09-09T06:32:48;14.70;99.90
19496;DHT22;9888;48.606;9.630;2022-09-09T06:35:17;14.90;99.90
19496;DHT22;9888;48.606;9.630;2022-09-09T06:37:49;15.20;99.90
19496;DHT22;9888;48.606;9.630;2022-09-09T06:40:34;15.30;99.90
19496;DHT22;9888;48.606;9.630;2022-09-09T06:43:06;15.60;99.90
19496;DHT22;9888;48.606;9.630;2022-09-09T06:45:33;15.80;99.90
19496;DHT22;9888;48.606;9.630;2022-09-09T06:48:05;15.90;99.90
19496;DHT22;9888;48.606;9.630;2022-09-09T06:50:40;16.00;99.90
19496;DHT22;9888;48.606;9.630;2022-09-09T06:53:07;16.10;99.90
19496;DHT22;9888;48.606;9.630;2022-09-09T06:55:35;16.10;99.90
19496;DHT22;9888;48.606;9.630;2022-09-09T06:58:08;16.20;99.90
19496;DHT22;9888;48.606;9.630;2022-09-09T07:00:36;16.30;99.90
19496;DHT22;9888;48.606;9.630;2022-09-09T07:03:11;16.40;99.90
19496;DHT22;9888;48.606;9.630;2022-09-09T07:05:42;16.50;99.90
19496;DHT22;9888;48.606;9.630;2022-09-09T07:08:11;16.60;99.90
19496;DHT22;9888;48.606;9.630;2022-09-09T07:10:39;16.70;99.90
19496;DHT22;9888;48.606;9.630;2022-09-09T07:13:08;16.70;99.90
19496;DHT22;9888;48.606;9.630;2022-09-09T07:15:36;16.80;99.90
19496;DHT22;9888;48.606;9.630;2022-09-09T07:18:04;16.80;99.90
19496;DHT22;9888;48.606;9.630;2022-09-09T07:20:32;16.80;99.90
19496;DHT22;9888;48.606;9.630;2022-09-09T07:23:00;16.80;99.90
19496;DHT22;9888;48.606;9.630;2022-09-09T07:25:30;16.80;99.90
19496;DHT22;9888;48.606;9.630;2022-09-09T07:28:04;17.00;99.90
19496;DHT22;9888;48.606;9.630;2022-09-09T07:30:33;17.00;99.90
19496;DHT22;9888;48.606;9.630;2022-09-09T07:33:07;17.00;99.90
19496;DHT22;9888;48.606;9.630;2022-09-09T07:35:36;17.10;99.90
19496;DHT22;9888;48.606;9.630;2022-09-09T07:38:06;17.00;99.90
19496;DHT22;9888;48.606;9.630;2022-09-09T07:40:35;17.00;99.90
19496;DHT22;9888;48.606;9.630;2022-09-09T07:43:06;17.00;99.90
19496;DHT22;9888;48.606;9.630;2022-09-09T07:45:35;17.10;99.90
19496;DHT22;9888;48.606;9.630;2022-09-09T07:48:04;17.10;99.90
19496;DHT22;9888;48.606;9.630;2022-09-09T07:50:36;17.20;99.90
19496;DHT22;9888;48.606;9.630;2022-09-09T07:53:05;17.20;99.90
19496;DHT22;9888;48.606;9.630;2022-09-09T07:55:38;17.20;99.90
19496;DHT22;9888;48.606;9.630;2022-09-09T07:58:06;17.40;99.90
19496;DHT22;9888;48.606;9.630;2022-09-09T08:00:34;17.60;99.90
19496;DHT22;9888;48.606;9.630;2022-09-09T08:03:02;18.00;99.90
19496;DHT22;9888;48.606;9.630;2022-09-09T08:05:31;18.30;99.90
19496;DHT22;9888;48.606;9.630;2022-09-09T08:07:57;18.40;99.90
19496;DHT22;9888;48.606;9.630;2022-09-09T08:10:26;18.40;99.90
19496;DHT22;9888;48.606;9.630;2022-09-09T08:12:54;18.50;99.90
19496;DHT22;9888;48.606;9.630;2022-09-09T08:15:26;18.40;99.90
19496;DHT22;9888;48.606;9.630;2022-09-09T08:17:56;18.30;99.90
19496;DHT22;9888;48.606;9.630;2022-09-09T08:20:25;18.00;99.90
19496;DHT22;9888;48.606;9.630;2022-09-09T08:22:55;18.50;99.90
19496;DHT22;9888;48.606;9.630;2022-09-09T08:25:24;18.90;99.90
19496;DHT22;9888;48.606;9.630;2022-09-09T08:27:53;19.50;99.90
19496;DHT22;9888;48.606;9.630;2022-09-09T08:30:21;19.40;99.90
19496;DHT22;9888;48.606;9.630;2022-09-09T08:32:50;19.00;99.90
19496;DHT22;9888;48.606;9.630;2022-09-09T08:35:17;18.90;99.90
19496;DHT22;9888;48.606;9.630;2022-09-09T08:37:45;19.00;99.90
19496;DHT22;9888;48.606;9.630;2022-09-09T08:40:21;18.70;99.90
19496;DHT22;9888;48.606;9.630;2022-09-09T08:42:53;18.60;99.90
19496;DHT22;9888;48.606;9.630;2022-09-09T08:45:43;18.80;99.90
19496;DHT22;9888;48.606;9.630;2022-09-09T08:48:29;18.60;99.90
19496;DHT22;9888;48.606;9.630;2022-09-09T08:51:03;18.10;99.90
19496;DHT22;9888;48.606;9.630;2022-09-09T08:53:46;18.10;99.90
19496;DHT22;9888;48.606;9.630;2022-09-09T08:56:21;18.20;99.90
19496;DHT22;9888;48.606;9.630;2022-09-09T08:58:55;18.40;99.90
19496;DHT22;9888;48.606;9.630;2022-09-09T09:01:59;18.70;99.90
19496;DHT22;9888;48.606;9.630;2022-09-09T09:04:56;18.70;99.90
19496;DHT22;9888;48.606;9.630;2022-09-09T09:10:54;18.50;99.90
19496;DHT22;9888;48.606;9.630;2022-09-09T09:18:57;19.80;99.90
19496;DHT22;9888;48.606;9.630;2022-09-09T09:21:42;21.00;99.90
19496;DHT22;9888;48.606;9.630;2022-09-09T09:24:55;21.30;99.90
19496;DHT22;9888;48.606;9.630;2022-09-09T09:29:56;22.70;99.90
19496;DHT22;9888;48.606;9.630;2022-09-09T09:32:25;22.60;99.90
19496;DHT22;9888;48.606;9.630;2022-09-09T09:34:57;22.40;99.90
19496;DHT22;9888;48.606;9.630;2022-09-09T09:37:32;23.60;99.90
19496;DHT22;9888;48.606;9.630;2022-09-09T09:40:12;22.40;99.90
19496;DHT22;9888;48.606;9.630;2022-09-09T09:43:00;22.30;99.90
19496;DHT22;9888;48.606;9.630;2022-09-09T09:45:41;22.20;99.90
19496;DHT22;9888;48.606;9.630;2022-09-09T09:48:13;22.30;99.90
19496;DHT22;9888;48.606;9.630;2022-09-09T09:51:13;22.20;99.90
19496;DHT22;9888;48.606;9.630;2022-09-09T09:53:46;22.30;99.90
19496;DHT22;9888;48.606;9.630;2022-09-09T09:56:53;22.30;99.90
19496;DHT22;9888;48.606;9.630;2022-09-09T09:59:46;22.70;99.90
19496;DHT22;9888;48.606;9.630;2022-09-09T10:02:23;22.70;99.90
19496;DHT22;9888;48.606;9.630;2022-09-09T10:07:30;22.10;99.90
19496;DHT22;9888;48.606;9.630;2022-09-09T10:09:59;21.30;99.90
19496;DHT22;9888;48.606;9.630;2022-09-09T10:12:45;21.30;99.90
19496;DHT22;9888;48.606;9.630;2022-09-09T10:15:48;21.50;99.90
19496;DHT22;9888;48.606;9.630;2022-09-09T10:18:33;21.30;99.90
19496;DHT22;9888;48.606;9.630;2022-09-09T10:21:25;21.50;99.90
19496;DHT22;9888;48.606;9.630;2022-09-09T10:27:23;21.90;99.90
19496;DHT22;9888;48.606;9.630;2022-09-09T10:35:14;21.70;99.90
19496;DHT22;9888;48.606;9.630;2022-09-09T10:38:03;21.70;99.90
19496;DHT22;9888;48.606;9.630;2022-09-09T10:46:22;21.80;99.90
19496;DHT22;9888;48.606;9.630;2022-09-09T10:51:56;20.30;99.90
19496;DHT22;9888;48.606;9.630;2022-09-09T10:55:02;19.70;99.90
19496;DHT22;9888;48.606;9.630;2022-09-09T10:57:55;19.60;99.90
19496;DHT22;9888;48.606;9.630;2022-09-09T11:00:49;20.40;99.90
19496;DHT22;9888;48.606;9.630;2022-09-09T11:03:29;20.80;99.90
19496;DHT22;9888;48.606;9.630;2022-09-09T11:06:06;20.60;99.90
19496;DHT22;9888;48.606;9.630;2022-09-09T11:08:44;21.60;99.90
19496;DHT22;9888;48.606;9.630;2022-09-09T11:11:14;24.90;99.90
19496;DHT22;9888;48.606;9.630;2022-09-09T11:19:35;21.40;99.90
19496;DHT22;9888;48.606;9.630;2022-09-09T11:22:37;21.60;99.90
19496;DHT22;9888;48.606;9.630;2022-09-09T11:25:21;21.80;99.90
19496;DHT22;9888;48.606;9.630;2022-09-09T11:30:51;21.90;99.90
19496;DHT22;9888;48.606;9.630;2022-09-09T11:44:45;28.60;99.90
19496;DHT22;9888;48.606;9.630;2022-09-09T11:47:31;28.50;99.90
19496;DHT22;9888;48.606;9.630;2022-09-09T11:52:46;30.20;96.70
19496;DHT22;9888;48.606;9.630;2022-09-09T11:55:26;30.60;95.40
19496;DHT22;9888;48.606;9.630;2022-09-09T11:58:00;32.30;92.90
19496;DHT22;9888;48.606;9.630;2022-09-09T12:03:43;30.60;90.80
19496;DHT22;9888;48.606;9.630;2022-09-09T12:06:31;27.90;90.30
19496;DHT22;9888;48.606;9.630;2022-09-09T12:09:22;27.10;92.00
19496;DHT22;9888;48.606;9.630;2022-09-09T12:12:04;25.60;93.10
19496;DHT22;9888;48.606;9.630;2022-09-09T12:17:20;22.10;99.90
19496;DHT22;9888;48.606;9.630;2022-09-09T12:29:02;19.50;99.90
19496;DHT22;9888;48.606;9.630;2022-09-09T12:32:05;22.80;99.90
19496;DHT22;9888;48.606;9.630;2022-09-09T12:38:01;26.40;99.90
19496;DHT22;9888;48.606;9.630;2022-09-09T12:40:33;29.40;98.10
19496;DHT22;9888;48.606;9.630;2022-09-09T12:43:26;28.90;96.70
19496;DHT22;9888;48.606;9.630;2022-09-09T12:46:01;26.10;97.60
19496;DHT22;9888;48.606;9.630;2022-09-09T12:48:38;25.50;98.80
19496;DHT22;9888;48.606;9.630;2022-09-09T12:51:41;27.20;98.80
19496;DHT22;9888;48.606;9.630;2022-09-09T12:54:14;29.00;96.80
19496;DHT22;9888;48.606;9.630;2022-09-09T12:56:46;29.80;95.90
19496;DHT22;9888;48.606;9.630;2022-09-09T12:59:27;30.50;93.20
19496;DHT22;9888;48.606;9.630;2022-09-09T13:02:02;29.90;93.60
19496;DHT22;9888;48.606;9.630;2022-09-09T13:04:33;28.60;93.90
19496;DHT22;9888;48.606;9.630;2022-09-09T13:07:10;28.40;93.90
19496;DHT22;9888;48.606;9.630;2022-09-09T13:09:53;29.10;93.50
19496;DHT22;9888;48.606;9.630;2022-09-09T13:12:22;27.50;93.30
19496;DHT22;9888;48.606;9.630;2022-09-09T13:14:53;27.40;94.50
19496;DHT22;9888;48.606;9.630;2022-09-09T13:17:30;26.80;94.30
19496;DHT22;9888;48.606;9.630;2022-09-09T13:20:00;27.30;94.40
19496;DHT22;9888;48.606;9.630;2022-09-09T13:22:37;27.00;93.80
19496;DHT22;9888;48.606;9.630;2022-09-09T13:25:25;27.20;93.90
19496;DHT22;9888;48.606;9.630;2022-09-09T13:30:39;29.90;92.80
19496;DHT22;9888;48.606;9.630;2022-09-09T13:35:56;30.20;90.30
19496;DHT22;9888;48.606;9.630;2022-09-09T13:38:25;29.70;90.50
19496;DHT22;9888;48.606;9.630;2022-09-09T13:41:04;30.60;90.50
19496;DHT22;9888;48.606;9.630;2022-09-09T13:43:42;31.10;91.10
19496;DHT22;9888;48.606;9.630;2022-09-09T13:49:22;29.40;89.10
19496;DHT22;9888;48.606;9.630;2022-09-09T13:52:04;27.00;93.20
19496;DHT22;9888;48.606;9.630;2022-09-09T13:54:38;27.40;92.90
19496;DHT22;9888;48.606;9.630;2022-09-09T13:59:47;25.70;93.90
19496;DHT22;9888;48.606;9.630;2022-09-09T14:02:15;24.40;96.00
19496;DHT22;9888;48.606;9.630;2022-09-09T14:04:45;25.00;95.60
19496;DHT22;9888;48.606;9.630;2022-09-09T14:07:50;26.20;96.50
19496;DHT22;9888;48.606;9.630;2022-09-09T14:10:21;26.10;95.40
19496;DHT22;9888;48.606;9.630;2022-09-09T14:12:49;26.90;93.60
19496;DHT22;9888;48.606;9.630;2022-09-09T14:15:18;26.30;94.10
19496;DHT22;9888;48.606;9.630;2022-09-09T14:17:47;25.00;94.20
19496;DHT22;9888;48.606;9.630;2022-09-09T14:20:16;23.20;94.70
19496;DHT22;9888;48.606;9.630;2022-09-09T14:22:45;21.40;95.50
19496;DHT22;9888;48.606;9.630;2022-09-09T14:25:14;20.90;98.00
19496;DHT22;9888;48.606;9.630;2022-09-09T14:27:45;21.70;97.30
19496;DHT22;9888;48.606;9.630;2022-09-09T14:30:18;21.90;97.90
19496;DHT22;9888;48.606;9.630;2022-09-09T14:32:47;22.50;96.30
19496;DHT22;9888;48.606;9.630;2022-09-09T14:35:14;22.50;95.90
19496;DHT22;9888;48.606;9.630;2022-09-09T14:37:48;22.20;96.10
19496;DHT22;9888;48.606;9.630;2022-09-09T14:40:20;22.20;97.30
19496;DHT22;9888;48.606;9.630;2022-09-09T14:42:48;22.90;96.20
19496;DHT22;9888;48.606;9.630;2022-09-09T14:45:17;23.60;96.90
19496;DHT22;9888;48.606;9.630;2022-09-09T14:47:50;24.20;95.90
19496;DHT22;9888;48.606;9.630;2022-09-09T14:50:22;24.80;95.20
19496;DHT22;9888;48.606;9.630;2022-09-09T14:52:51;26.30;94.50
19496;DHT22;9888;48.606;9.630;2022-09-09T14:55:19;25.30;94.10
19496;DHT22;9888;48.606;9.630;2022-09-09T14:57:47;26.10;94.80
19496;DHT22;9888;48.606;9.630;2022-09-09T15:00:21;26.70;93.20
19496;DHT22;9888;48.606;9.630;2022-09-09T15:02:54;25.40;93.30
19496;DHT22;9888;48.606;9.630;2022-09-09T15:05:23;25.20;93.70
19496;DHT22;9888;48.606;9.630;2022-09-09T15:07:50;23.80;93.60
19496;DHT22;9888;48.606;9.630;2022-09-09T15:10:18;23.40;94.80
19496;DHT22;9888;48.606;9.630;2022-09-09T15:12:49;22.50;95.60
19496;DHT22;9888;48.606;9.630;2022-09-09T15:15:19;22.30;96.80
19496;DHT22;9888;48.606;9.630;2022-09-09T15:17:51;22.60;97.80
19496;DHT22;9888;48.606;9.630;2022-09-09T15:20:20;24.20;96.40
19496;DHT22;9888;48.606;9.630;2022-09-09T15:22:50;25.50;94.40
19496;DHT22;9888;48.606;9.630;2022-09-09T15:28:25;26.10;93.60
19496;DHT22;9888;48.606;9.630;2022-09-09T15:30:55;24.60;93.50
19496;DHT22;9888;48.606;9.630;2022-09-09T15:33:23;23.70;93.10
19496;DHT22;9888;48.606;9.630;2022-09-09T15:35:52;23.30;93.80
19496;DHT22;9888;48.606;9.630;2022-09-09T15:38:21;23.10;94.00
19496;DHT22;9888;48.606;9.630;2022-09-09T15:40:57;23.70;93.80
19496;DHT22;9888;48.606;9.630;2022-09-09T15:43:26;24.20;93.20
19496;DHT22;9888;48.606;9.630;2022-09-09T15:45:59;24.30;92.60
19496;DHT22;9888;48.606;9.630;2022-09-09T15:48:35;23.30;94.10
19496;DHT22;9888;48.606;9.630;2022-09-09T15:51:03;21.80;94.80
19496;DHT22;9888;48.606;9.630;2022-09-09T15:53:31;21.10;95.80
19496;DHT22;9888;48.606;9.630;2022-09-09T15:56:00;20.50;96.50
19496;DHT22;9888;48.606;9.630;2022-09-09T15:58:30;20.30;97.30
19496;DHT22;9888;48.606;9.630;2022-09-09T16:01:05;20.30;96.70
19496;DHT22;9888;48.606;9.630;2022-09-09T16:07:02;22.60;95.50
19496;DHT22;9888;48.606;9.630;2022-09-09T16:09:33;22.40;94.80
19496;DHT22;9888;48.606;9.630;2022-09-09T16:12:04;21.60;95.50
19496;DHT22;9888;48.606;9.630;2022-09-09T16:14:42;20.70;96.30
19496;DHT22;9888;48.606;9.630;2022-09-09T16:17:10;20.00;98.00
19496;DHT22;9888;48.606;9.630;2022-09-09T16:19:39;19.70;97.80
19496;DHT22;9888;48.606;9.630;2022-09-09T16:22:07;19.50;99.20
19496;DHT22;9888;48.606;9.630;2022-09-09T16:24:36;19.20;98.60
19496;DHT22;9888;48.606;9.630;2022-09-09T16:27:04;19.10;99.50
19496;DHT22;9888;48.606;9.630;2022-09-09T16:29:31;19.10;99.90
19496;DHT22;9888;48.606;9.630;2022-09-09T16:31:59;19.00;99.60
19496;DHT22;9888;48.606;9.630;2022-09-09T16:34:27;19.00;99.70
19496;DHT22;9888;48.606;9.630;2022-09-09T16:36:56;19.00;99.90
19496;DHT22;9888;48.606;9.630;2022-09-09T16:39:28;18.90;99.90
19496;DHT22;9888;48.606;9.630;2022-09-09T16:42:03;18.90;99.90
19496;DHT22;9888;48.606;9.630;2022-09-09T16:44:31;18.80;99.90
19496;DHT22;9888;48.606;9.630;2022-09-09T16:46:59;18.80;99.90
19496;DHT22;9888;48.606;9.630;2022-09-09T16:49:27;18.80;99.90
19496;DHT22;9888;48.606;9.630;2022-09-09T16:51:58;18.70;99.90
19496;DHT22;9888;48.606;9.630;2022-09-09T16:54:26;18.70;99.90
19496;DHT22;9888;48.606;9.630;2022-09-09T16:56:53;18.60;99.90
19496;DHT22;9888;48.606;9.630;2022-09-09T16:59:22;18.50;99.90
19496;DHT22;9888;48.606;9.630;2022-09-09T17:01:51;18.40;99.70
19496;DHT22;9888;48.606;9.630;2022-09-09T17:04:23;18.30;99.40
19496;DHT22;9888;48.606;9.630;2022-09-09T17:06:53;18.20;99.90
19496;DHT22;9888;48.606;9.630;2022-09-09T17:09:24;18.10;99.80
19496;DHT22;9888;48.606;9.630;2022-09-09T17:11:55;18.00;99.90
19496;DHT22;9888;48.606;9.630;2022-09-09T17:14:23;17.90;99.90
19496;DHT22;9888;48.606;9.630;2022-09-09T17:16:51;17.80;99.90
19496;DHT22;9888;48.606;9.630;2022-09-09T17:19:18;17.70;99.90
19496;DHT22;9888;48.606;9.630;2022-09-09T17:21:47;17.60;99.90
19496;DHT22;9888;48.606;9.630;2022-09-09T17:24:15;17.40;99.90
19496;DHT22;9888;48.606;9.630;2022-09-09T17:26:42;17.20;99.90
19496;DHT22;9888;48.606;9.630;2022-09-09T17:29:13;17.10;99.90
19496;DHT22;9888;48.606;9.630;2022-09-09T17:35:06;16.90;99.90
19496;DHT22;9888;48.606;9.630;2022-09-09T17:37:35;16.70;99.90
19496;DHT22;9888;48.606;9.630;2022-09-09T17:40:03;16.60;99.90
19496;DHT22;9888;48.606;9.630;2022-09-09T17:42:32;16.60;99.90
19496;DHT22;9888;48.606;9.630;2022-09-09T17:44:59;16.50;99.90
19496;DHT22;9888;48.606;9.630;2022-09-09T17:47:27;16.40;99.90
19496;DHT22;9888;48.606;9.630;2022-09-09T17:49:58;16.30;99.90
19496;DHT22;9888;48.606;9.630;2022-09-09T17:56:05;16.00;99.90
19496;DHT22;9888;48.606;9.630;2022-09-09T17:58:36;15.90;99.90
19496;DHT22;9888;48.606;9.630;2022-09-09T18:01:12;16.10;99.90
19496;DHT22;9888;48.606;9.630;2022-09-09T18:03:42;16.00;99.90
19496;DHT22;9888;48.606;9.630;2022-09-09T18:06:16;16.00;99.90
19496;DHT22;9888;48.606;9.630;2022-09-09T18:08:53;16.00;99.90
19496;DHT22;9888;48.606;9.630;2022-09-09T18:11:23;15.90;99.90
19496;DHT22;9888;48.606;9.630;2022-09-09T18:13:53;15.90;99.90
19496;DHT22;9888;48.606;9.630;2022-09-09T18:16:24;15.80;99.90
19496;DHT22;9888;48.606;9.630;2022-09-09T18:19:15;15.70;99.90
19496;DHT22;9888;48.606;9.630;2022-09-09T18:21:52;15.50;99.90
19496;DHT22;9888;48.606;9.630;2022-09-09T18:24:23;15.40;99.90
19496;DHT22;9888;48.606;9.630;2022-09-09T18:27:06;15.30;99.90
19496;DHT22;9888;48.606;9.630;2022-09-09T18:29:34;15.30;99.90
19496;DHT22;9888;48.606;9.630;2022-09-09T18:32:08;15.30;99.90
19496;DHT22;9888;48.606;9.630;2022-09-09T18:34:38;15.30;99.90
19496;DHT22;9888;48.606;9.630;2022-09-09T18:37:08;15.20;99.90
19496;DHT22;9888;48.606;9.630;2022-09-09T18:39:44;15.20;99.90
19496;DHT22;9888;48.606;9.630;2022-09-09T18:42:13;15.00;99.90
19496;DHT22;9888;48.606;9.630;2022-09-09T18:45:17;14.80;99.90
19496;DHT22;9888;48.606;9.630;2022-09-09T18:47:50;14.60;99.90
19496;DHT22;9888;48.606;9.630;2022-09-09T18:56:49;14.20;99.90
19496;DHT22;9888;48.606;9.630;2022-09-09T18:59:20;14.10;99.90
19496;DHT22;9888;48.606;9.630;2022-09-09T19:01:54;14.00;99.90
19496;DHT22;9888;48.606;9.630;2022-09-09T19:04:22;14.00;99.90
19496;DHT22;9888;48.606;9.630;2022-09-09T19:06:52;14.00;99.90
19496;DHT22;9888;48.606;9.630;2022-09-09T19:09:30;13.90;99.90
19496;DHT22;9888;48.606;9.630;2022-09-09T19:11:59;13.90;99.90
19496;DHT22;9888;48.606;9.630;2022-09-09T19:14:30;13.90;99.90
19496;DHT22;9888;48.606;9.630;2022-09-09T19:16:59;13.90;99.90
19496;DHT22;9888;48.606;9.630;2022-09-09T19:19:32;13.80;99.90
19496;DHT22;9888;48.606;9.630;2022-09-09T19:22:03;13.70;99.90
19496;DHT22;9888;48.606;9.630;2022-09-09T19:24:39;13.70;99.90
19496;DHT22;9888;48.606;9.630;2022-09-09T19:27:06;13.70;99.90
19496;DHT22;9888;48.606;9.630;2022-09-09T19:29:42;13.60;99.90
19496;DHT22;9888;48.606;9.630;2022-09-09T19:32:20;13.60;99.90
19496;DHT22;9888;48.606;9.630;2022-09-09T19:38:11;13.60;99.90
19496;DHT22;9888;48.606;9.630;2022-09-09T19:40:41;13.80;99.90
19496;DHT22;9888;48.606;9.630;2022-09-09T19:43:11;13.80;99.90
19496;DHT22;9888;48.606;9.630;2022-09-09T19:45:41;13.80;99.90
19496;DHT22;9888;48.606;9.630;2022-09-09T19:48:13;14.10;99.90
19496;DHT22;9888;48.606;9.630;2022-09-09T19:50:46;14.00;99.90
19496;DHT22;9888;48.606;9.630;2022-09-09T19:53:26;14.10;99.90
19496;DHT22;9888;48.606;9.630;2022-09-09T19:56:07;14.20;99.90
19496;DHT22;9888;48.606;9.630;2022-09-09T19:58:36;14.20;99.90
19496;DHT22;9888;48.606;9.630;2022-09-09T20:01:27;14.30;99.90
19496;DHT22;9888;48.606;9.630;2022-09-09T20:04:02;14.30;99.90
19496;DHT22;9888;48.606;9.630;2022-09-09T20:06:33;14.20;99.90
19496;DHT22;9888;48.606;9.630;2022-09-09T20:09:33;14.20;99.90